x

Lahaina / West Maui Weather Station

7:45 - Tue 21st Apr 2015 All times are HST. -10 hours from GMT.

  • Wind
    15mph, 22mph gusts
  • Ar Temp 73°f
  • Sea Pressure 1016.9mb
  • Lahaina / West Maui
  • Lahaina / West Maui

More Historic Weather Station data

Upgrade to MSW Pro to gain access to the past 30 days of data for over 8000 Wavebouys and Weather Stations around the globe.

Join Pro

Comparision Forecast

View Surf forecast
   
Ter 04/21 7:45 15 22 mph 1016.9mb 73f
6:45 18 30 mph 1016.6mb 72f
6:00 18 27 mph 1016.3mb 70f
Seg 04/20 5:50 12 23 mph 1017.6mb 73f
4:50 17 27 mph 1017.3mb 73f
3:50 14 25 mph 1016.9mb 75f
2:50 17 29 mph 1017.3mb 73f
1:50 14 28 mph 1018mb 73f
12:50 17 25 mph 1018.6mb 75f
11:50 14 25 mph 1019.3mb 75f
10:50 14 27 mph 1020mb 73f
9:52 14 23 mph 1020mb 70f
8:54 17 25 mph 1019.6mb 70f
7:50 14 23 mph 1019.3mb 70f
6:50 17 29 mph 1018.6mb 72f
6:03 14
mph
1018.6mb 72f
Dom 04/19 5:45 24 31 mph 1019mb 73f
4:45 15 27 mph 1018.6mb 72f
3:45 20 33 mph 1018.6mb 77f
2:45 23 32 mph 1019mb 77f
1:45 20 33 mph 1020mb 77f
12:45 17 28 mph 1020.3mb 77f
11:45 21 29 mph 1021.3mb 79f
10:45 18 25 mph 1021mb 77f
9:45 15 21 mph 1021.3mb 73f
8:45 14 18 mph 1021.3mb 72f
7:45 17 25 mph 1020.7mb 70f
6:45 18 22 mph 1020mb 70f
6:00 14 17 mph 1020mb 68f
Sáb 04/18 5:45 20 32 mph 1018.6mb 77f
4:45 17 32 mph 1018.3mb 77f
3:45 22 35 mph 1018.3mb 81f
2:45 20 31 mph 1018.6mb 81f
1:45 18 37 mph 1019mb 81f
12:45 21 33 mph 1019.6mb 81f
11:45 17 30 mph 1020.3mb 81f
10:45 18 31 mph 1020.7mb 81f
9:45 20 32 mph 1020.3mb 79f
8:45 21 32 mph 1020.3mb 77f
7:45 16 29 mph 1020mb 75f
6:45 18 30 mph 1019.3mb 73f
6:00 16 29 mph 1018.6mb 73f